Flight Track Log - Related Links

Times and Time Zones

All times are in EDT time to prevent confusion due to time zone crossing. See the N552XJ flight status page for this flight to view local times or setup timezone preferences in your user account.


Time Position Orientation Groundspeed Altitude Reporting Facility
EDT Latitude Longitude Course Direction KTS MPH feet Rate Location/Type
Mon 06:33:52 PM 40.8167 -74.1500 323° Northwest 210 242 1,600  Level New York TRACON
Mon 06:34:52 PM 40.8167 -74.2167 270° West 220 253 4,900 3,550 Climbing New York TRACON
Mon 06:35:52 PM 40.8333 -74.3000 285° West 235 270 8,700 3,373 Climbing New York TRACON
Mon 06:37:25 PM 40.9367 -74.3475 341° North 280 322 13,500 2,037 Climbing New York Center
Mon 06:39:00 PM 41.1677 -74.8010 323° Northwest  Level FlightAware Approximate
Mon 06:39:00 PM 41.0410 -74.5116 299° West  Level FlightAware Approximate
Mon 06:39:27 PM 41.0372 -74.5261 299° West 305 351 16,000  Level New York Center
Mon 06:40:27 PM 41.0947 -74.6228 308° West 332 382 15,900 203 Descending New York Center
Mon 06:41:25 PM 41.1419 -74.7053 307° West 332 382 16,400 1,424 Climbing New York Center
Mon 06:42:25 PM 41.1825 -74.8014 299° West 327 376 18,700 2,683 Climbing New York Center
Mon 06:43:28 PM 41.2344 -74.9203 300° West 333 383 21,900 3,025 Climbing New York Center
Mon 06:44:26 PM 41.2806 -75.0281 300° West 339 390 24,800 2,622 Climbing New York Center
Mon 06:45:27 PM 41.3267 -75.1361 300° West 339 390 27,100 1,866 Climbing New York Center
Mon 06:46:25 PM 41.3767 -75.2472 301° West 344 396 28,500 1,525 Climbing New York Center
Mon 06:47:25 PM 41.4283 -75.3667 300° West 356 410 30,100 1,600 Climbing New York Center
Mon 06:48:25 PM 41.4778 -75.4892 298° West 368 423 31,700 1,587 Climbing New York Center
Mon 06:49:26 PM 41.5161 -75.6194 291° West 373 429 33,300 1,600 Climbing New York Center
Mon 06:50:25 PM 41.5525 -75.7467 291° West 373 429 34,900 2,000 Climbing New York Center
Mon 06:51:26 PM 41.5869 -75.8686 291° West 361 415 37,300 1,525 Climbing New York Center
Mon 06:52:27 PM 41.6194 -75.9847 291° West 347 399 38,000 356 Climbing New York Center
Mon 06:53:24 PM 41.6517 -76.1011 290° West 341 392 38,000  Level New York Center
Mon 06:54:25 PM 41.6881 -76.2181 293° West 336 387 38,000  Level New York Center
Mon 06:55:26 PM 41.7200 -76.3372 290° West 336 387 38,000 545 Level New York Center
Mon 06:57:10 PM 41.7767 -76.5536 289° West 334 384 39,500 727 Climbing Cleveland Center
Mon 06:58:11 PM 41.8078 -76.6661 290° West 323 372 40,000 500 Climbing Cleveland Center
Mon 06:59:10 PM 41.8408 -76.7839 291° West 323 372 40,500 400 Climbing Cleveland Center
Mon 07:00:11 PM 41.8739 -76.9047 290° West 333 383 40,800 298 Climbing Cleveland Center
Mon 07:01:11 PM 41.9092 -77.0283 291° West 343 395 41,100 303 Climbing Cleveland Center
Mon 07:02:10 PM 41.9444 -77.1575 290° West 361 415 41,400 303 Climbing Cleveland Center
Mon 07:03:10 PM 41.9794 -77.2897 290° West 366 421 41,700 300 Climbing Cleveland Center
Mon 07:04:10 PM 42.0144 -77.4222 290° West 371 427 42,000 300 Climbing Cleveland Center
Mon 07:05:10 PM 42.0514 -77.5544 291° West 377 434 42,300 298 Climbing Cleveland Center
Mon 07:06:11 PM 42.0842 -77.6928 288° West 377 434 42,600 298 Climbing Cleveland Center
Mon 07:07:11 PM 42.1208 -77.8286 290° West 377 434 42,900 200 Climbing Cleveland Center
Mon 07:08:11 PM 42.1575 -77.9642 290° West 377 434 43,000 50 Climbing Cleveland Center
Mon 07:09:11 PM 42.1939 -78.1000 290° West 382 440 43,000  Level Cleveland Center
Mon 07:10:11 PM 42.2300 -78.2417 289° West 382 440 43,000  Level Cleveland Center
Mon 07:11:10 PM 42.2661 -78.3778 290° West 387 445 43,000  Level Cleveland Center
Mon 07:12:11 PM 42.3019 -78.5169 289° West 387 445 43,000  Level Cleveland Center
Mon 07:13:11 PM 42.3358 -78.6592 288° West 387 445 43,000  Level Cleveland Center
Mon 07:14:11 PM 42.3733 -78.7956 290° West 392 451 43,000  Level Cleveland Center
Mon 07:15:10 PM 42.4044 -78.9214 289° West 397 457 43,000  Level Cleveland Center
Mon 07:16:11 PM 42.4378 -79.0639 288° West 397 457 43,000  Level Cleveland Center
Mon 07:17:11 PM 42.4772 -79.2178 289° West 402 463 43,000  Level Cleveland Center
Mon 07:18:11 PM 42.5119 -79.3581 289° West 402 463 43,000  Level Cleveland Center
Mon 07:19:11 PM 42.5050 -79.4933 266° West 397 457 43,000  Level Cleveland Center
Mon 07:20:11 PM 42.5106 -79.6425 273° West 397 457 43,000  Level Cleveland Center
Mon 07:21:10 PM 42.5158 -79.7861 273° West 397 457 43,000  Level Cleveland Center
Mon 07:22:11 PM 42.5250 -79.9353 275° West 397 457 43,000  Level Cleveland Center
Mon 07:23:10 PM 42.5300 -80.0958 272° West 397 457 43,000  Level Cleveland Center
Mon 07:24:10 PM 42.5347 -80.2422 273° West 397 457 43,000  Level Cleveland Center
Mon 07:25:10 PM 42.5414 -80.3831 274° West 397 457 43,000  Level Cleveland Center
Mon 07:26:10 PM 42.5478 -80.5325 273° West 389 448 43,000 50 Level Cleveland Center
Mon 07:27:10 PM 42.5539 -80.6650 274° West 389 448 43,100  Climbing Cleveland Center
Mon 07:28:11 PM 42.5581 -80.8144 272° West 389 448 43,000 -50 Descending Cleveland Center
Mon 07:29:10 PM 42.5639 -80.9553 273° West 384 442 43,000  Level Cleveland Center
Mon 07:30:10 PM 42.5694 -81.0992 273° West 378 435 43,000  Level Cleveland Center
Mon 07:31:10 PM 42.5731 -81.2317 272° West 371 427 43,000  Level Cleveland Center
Mon 07:32:10 PM 42.5783 -81.3728 273° West 366 421 43,000  Level Cleveland Center
Mon 07:33:10 PM 42.5942 -81.5053 279° West 366 421 43,000  Level Cleveland Center
Mon 07:34:11 PM 42.6200 -81.6469 284° West 376 433 43,000  Level Cleveland Center
Mon 07:35:10 PM 42.6394 -81.7856 281° West 376 433 43,000  Level Cleveland Center
Mon 07:37:11 PM 42.6903 -82.0717 284° West 381 438 43,000  Level Cleveland Center
Mon 07:38:11 PM 42.7156 -82.2136 284° West 381 438 43,000  Level Cleveland Center
Mon 07:39:10 PM 42.7403 -82.3614 283° West 393 452 43,000  Level Cleveland Center
Mon 07:40:11 PM 42.7653 -82.5033 284° West 393 452 43,000  Level Cleveland Center
Mon 07:41:11 PM 42.7897 -82.6486 283° West 393 452 43,000  Level Cleveland Center
Mon 07:42:10 PM 42.8142 -82.7936 283° West 393 452 43,000  Level Cleveland Center
Mon 07:43:10 PM 42.8364 -82.9333 282° West 393 452 43,000  Level Cleveland Center
Mon 07:44:10 PM 42.8583 -83.0728 282° West 393 452 43,000  Level Cleveland Center
Mon 07:45:11 PM 42.8825 -83.2125 283° West 388 447 43,000  Level Cleveland Center
Mon 07:46:11 PM 42.9042 -83.3525 282° West 379 436 43,000  Level Cleveland Center
Mon 07:47:11 PM 42.9256 -83.4953 282° West 379 436 43,000  Level Cleveland Center
Mon 07:48:10 PM 42.9492 -83.6411 283° West 379 436 43,000  Level Cleveland Center
Mon 07:49:11 PM 42.9719 -83.7925 282° West 393 452 43,000  Level Cleveland Center
Mon 07:50:10 PM 42.9844 -83.9436 277° West 406 467 43,000  Level Cleveland Center
Mon 07:51:10 PM 43.0028 -84.0981 279° West 411 473 43,000  Level Cleveland Center
Mon 07:51:30 PM 43.0094 -84.1628 278° West 413 475 43,000  Level Chicago Center
Mon 07:52:32 PM 43.0253 -84.3186 278° West 416 479 43,000  Level Chicago Center
Mon 07:53:35 PM 43.0406 -84.4722 278° West 412 474 43,000  Level Chicago Center
Mon 07:54:37 PM 43.0553 -84.6281 277° West 414 476 43,000  Level Chicago Center
Mon 07:55:39 PM 43.0694 -84.7814 277° West 410 472 43,000  Level Chicago Center
Mon 07:56:41 PM 43.0836 -84.9333 277° West 406 467 43,000  Level Chicago Center
Mon 07:57:43 PM 43.1003 -85.1147 277° West 404 465 43,000  Level Chicago Center
Mon 07:58:45 PM 43.1133 -85.2647 277° West 401 461 43,000  Level Chicago Center
Mon 07:59:47 PM 43.1272 -85.4144 277° West 398 458 43,000  Level Chicago Center
Mon 08:00:49 PM 43.1406 -85.5636 277° West 399 459 43,000  Level Chicago Center
Mon 08:01:51 PM 43.1525 -85.7128 276° West 398 458 43,000  Level Chicago Center
Mon 08:02:53 PM 43.1686 -85.8897 277° West 398 458 43,000  Level Chicago Center
Mon 08:03:55 PM 43.1817 -86.0369 277° West 401 461 43,000  Level Chicago Center
Mon 08:04:58 PM 43.1931 -86.1867 276° West 403 464 43,000  Level Chicago Center
Mon 08:06:00 PM 43.1967 -86.3339 272° West 392 451 43,000  Level Chicago Center
Mon 08:07:02 PM 43.1903 -86.5158 267° West 399 459 43,000  Level Chicago Center
Mon 08:08:04 PM 43.1858 -86.6675 268° West 398 458 43,000  Level Chicago Center
Mon 08:09:06 PM 43.1800 -86.8200 267° West 401 461 43,000  Level Chicago Center
Mon 08:10:08 PM 43.1750 -86.9714 267° West 400 460 43,000  Level Chicago Center
Mon 08:11:10 PM 43.1683 -87.1244 267° West 404 465 43,000 290 Level Chicago Center
Mon 08:12:12 PM 43.1617 -87.3056 267° West 398 458 43,600 532 Climbing Chicago Center
Mon 08:13:14 PM 43.1558 -87.4439 267° West 391 450 44,100 387 Climbing Chicago Center
Mon 08:14:16 PM 43.1522 -87.5933 268° West 391 450 44,400 339 Climbing Chicago Center
Mon 08:15:18 PM 43.1458 -87.7683 267° West 392 451 44,800 288 Climbing Chicago Center
Mon 08:16:21 PM 43.1411 -87.9144 268° West 387 445 45,000 96 Climbing Chicago Center
Mon 08:17:23 PM 43.1358 -88.0669 267° West 393 452 45,000  Level Chicago Center
Mon 08:18:25 PM 43.1300 -88.2175 267° West 392 451 45,000  Level Chicago Center
Mon 08:19:27 PM 43.1242 -88.3694 267° West 395 455 45,000  Level Chicago Center
Mon 08:20:29 PM 43.1164 -88.5272 266° West 409 471 45,000  Level Chicago Center
Mon 08:21:31 PM 43.1114 -88.6847 268° West 411 473 45,000  Level Chicago Center
Mon 08:22:33 PM 43.1047 -88.8689 267° West 412 474 45,000  Level Chicago Center
Mon 08:23:35 PM 43.0981 -89.0261 267° West 412 474 45,000  Level Chicago Center
Mon 08:24:37 PM 43.0908 -89.1825 266° West 410 472 45,000  Level Chicago Center
Mon 08:25:40 PM 43.0839 -89.3386 267° West 412 474 45,000  Level Chicago Center
Mon 08:26:42 PM 43.0761 -89.4942 266° West 411 473 45,000  Level Chicago Center
Mon 08:27:44 PM 43.0681 -89.6769 267° West 410 472 45,000  Level Chicago Center
Mon 08:28:46 PM 43.0603 -89.8336 266° West 413 475 45,000  Level Chicago Center
Mon 08:29:48 PM 43.0511 -89.9939 266° West 411 473 45,000  Level Chicago Center
Mon 08:30:50 PM 43.0433 -90.1475 266° West 410 472 45,000  Level Chicago Center
Mon 08:31:52 PM 43.0347 -90.3028 266° West 413 475 45,000  Level Chicago Center
Mon 08:32:54 PM 43.0294 -90.4575 267° West 413 475 45,000  Level Chicago Center
Mon 08:33:56 PM 43.0197 -90.6117 265° West 412 474 45,000  Level Chicago Center
Mon 08:34:58 PM 43.0069 -90.7969 265° West 413 475 45,000  Level Chicago Center
Mon 08:36:00 PM 42.9986 -90.9536 266° West 416 479 45,000  Level Chicago Center
Mon 08:37:02 PM 42.9897 -91.1092 266° West 418 481 45,000  Level Chicago Center
Mon 08:38:05 PM 42.9806 -91.2647 265° West 417 480 45,000  Level Chicago Center
Mon 08:39:07 PM 42.9694 -91.4503 265° West 417 480 45,000  Level Chicago Center
Mon 08:40:12 PM 42.9611 -91.6039 266° West 419 482 45,000  Level Minneapolis Center
Mon 08:41:11 PM 42.9481 -91.7586 263° West 418 481 45,000  Level Chicago Center
Mon 08:42:13 PM 42.9364 -91.9128 264° West 418 481 45,000  Level Chicago Center
Mon 08:43:18 PM 42.9239 -92.0986 265° West 418 481 45,000  Level Minneapolis Center
Mon 08:44:20 PM 42.9117 -92.2550 264° West 419 482 45,000  Level Minneapolis Center
Mon 08:45:22 PM 42.9011 -92.4114 265° West 419 482 45,000  Level Minneapolis Center
Mon 08:46:24 PM 42.8867 -92.5992 264° West 420 483 45,000  Level Minneapolis Center
Mon 08:47:24 PM 42.8747 -92.7553 264° West 423 487 45,000  Level Chicago Center
Mon 08:48:25 PM 42.8633 -92.9142 264° West 426 490 45,000  Level Chicago Center
Mon 08:49:27 PM 42.8500 -93.0728 264° West 426 490 45,000  Level Chicago Center
Mon 08:50:30 PM 42.8386 -93.2306 264° West 425 489 45,000  Level Chicago Center
Mon 08:51:34 PM 42.8228 -93.4225 264° West 428 493 45,000  Level Minneapolis Center
Mon 08:52:36 PM 42.8103 -93.5806 264° West 424 488 45,000  Level Minneapolis Center
Mon 08:53:38 PM 42.7972 -93.7417 264° West 430 495 45,000  Level Minneapolis Center
Mon 08:54:40 PM 42.7836 -93.9017 263° West 431 496 45,000  Level Minneapolis Center
Mon 08:55:42 PM 42.7697 -94.0619 263° West 430 495 45,000  Level Minneapolis Center
Mon 08:56:44 PM 42.7539 -94.2531 264° West 429 494 45,000  Level Minneapolis Center
Mon 08:57:46 PM 42.7386 -94.4128 263° West 429 494 45,000  Level Minneapolis Center
Mon 08:58:49 PM 42.7239 -94.5742 263° West 434 499 45,000  Level Minneapolis Center
Mon 08:59:51 PM 42.7069 -94.7522 263° West 430 495 45,000  Level Minneapolis Center
Mon 09:00:53 PM 42.6917 -94.9144 263° West 433 498 45,000  Level Minneapolis Center
Mon 09:01:55 PM 42.6756 -95.0753 262° West 432 497 45,000  Level Minneapolis Center
Mon 09:02:57 PM 42.6597 -95.2369 262° West 432 497 45,000  Level Minneapolis Center
Mon 09:03:59 PM 42.6444 -95.3961 263° West 427 491 45,000  Level Minneapolis Center
Mon 09:05:01 PM 42.6253 -95.5867 262° West 425 489 45,000  Level Minneapolis Center
Mon 09:06:03 PM 42.6086 -95.7431 262° West 419 482 45,000  Level Minneapolis Center
Mon 09:07:05 PM 42.5928 -95.9006 262° West 421 484 45,000  Level Minneapolis Center
Mon 09:08:07 PM 42.5761 -96.0558 262° West 419 482 45,000  Level Minneapolis Center
Mon 09:09:09 PM 42.5589 -96.2136 262° West 422 486 45,000  Level Minneapolis Center
Mon 09:10:11 PM 42.5422 -96.3708 262° West 423 487 45,000  Level Minneapolis Center
Mon 09:11:13 PM 42.5211 -96.5619 262° West 428 493 45,000  Level Minneapolis Center
Mon 09:12:15 PM 42.5028 -96.7208 261° West 428 493 45,000  Level Minneapolis Center
Mon 09:13:17 PM 42.4853 -96.8806 262° West 429 494 45,000  Level Minneapolis Center
Mon 09:14:19 PM 42.4675 -97.0392 261° West 428 493 45,000  Level Minneapolis Center
Mon 09:15:21 PM 42.4494 -97.1981 261° West 428 493 45,000  Level Minneapolis Center
Mon 09:16:23 PM 42.4275 -97.3892 261° West 430 495 45,000  Level Minneapolis Center
Mon 09:17:25 PM 42.4083 -97.5469 261° West 428 493 45,000  Level Minneapolis Center
Mon 09:18:27 PM 42.3889 -97.7081 261° West 431 496 45,000  Level Minneapolis Center
Mon 09:19:29 PM 42.3703 -97.8608 261° West 430 495 45,000  Level Minneapolis Center
Mon 09:20:31 PM 42.3508 -98.0192 261° West 429 494 45,000  Level Minneapolis Center
Mon 09:21:34 PM 42.3272 -98.2106 261° West 430 495 45,000  Level Minneapolis Center
Mon 09:22:36 PM 42.3064 -98.3689 260° West 430 495 45,000  Level Minneapolis Center
Mon 09:23:38 PM 42.2867 -98.5275 261° West 429 494 45,000  Level Minneapolis Center
Mon 09:24:26 PM 42.2694 -98.6539 260° West 428 493 45,000  Level Denver Center
Mon 09:25:28 PM 42.2492 -98.8125 260° West 429 494 45,000  Level Denver Center
Mon 09:26:30 PM 42.2283 -98.9722 260° West 434 499 45,000  Level Denver Center
Mon 09:26:56 PM 42.2164 -99.0664 260° West 430 495 45,000  Level Minneapolis Center
Mon 09:27:58 PM 42.1947 -99.2242 260° West 429 494 45,000  Level Minneapolis Center
Mon 09:29:00 PM 42.1736 -99.3817 260° West 428 493 45,000  Level Minneapolis Center
Mon 09:29:36 PM 42.1603 -99.4753 259° West 427 491 45,000  Level Denver Center
Mon 09:31:00 PM 42.1277 -99.6807 258° West  Level FlightAware Approximate
Mon 09:31:40 PM 42.1144 -99.8036 258° West 427 491 45,000  Level Denver Center
Mon 09:32:41 PM 42.0942 -99.9528 260° West 425 489 45,000  Level Denver Center
Mon 09:33:43 PM 42.0689 -100.1275 259° West 427 491 45,000  Level Denver Center
Mon 09:34:45 PM 42.0469 -100.2772 259° West 427 491 45,000  Level Denver Center
Mon 09:35:47 PM 42.0214 -100.4503 259° West 425 489 45,000  Level Denver Center
Mon 09:36:49 PM 42.0000 -100.6014 259° West 430 495 45,000  Level Denver Center
Mon 09:37:51 PM 41.9739 -100.7767 259° West 430 495 45,000  Level Denver Center
Mon 09:38:53 PM 41.9517 -100.9278 259° West 431 496 45,000  Level Denver Center
Mon 09:39:55 PM 41.9294 -101.0794 259° West 434 499 45,000  Level Denver Center
Mon 09:40:56 PM 41.9017 -101.2561 258° West 434 499 45,000  Level Denver Center
Mon 09:41:58 PM 41.8792 -101.4061 259° West 431 496 45,000  Level Denver Center
Mon 09:43:00 PM 41.8511 -101.5794 258° West 428 493 45,000  Level Denver Center
Mon 09:44:02 PM 41.8278 -101.7286 258° West 428 493 45,000  Level Denver Center
Mon 09:45:04 PM 41.7994 -101.9014 258° West 427 491 45,000  Level Denver Center
Mon 09:46:06 PM 41.7769 -102.0511 259° West 430 495 45,000  Level Denver Center
Mon 09:47:08 PM 41.7472 -102.2258 257° West 432 497 45,000  Level Denver Center
Mon 09:48:10 PM 41.7231 -102.3744 258° West 430 495 45,000  Level Denver Center
Mon 09:49:12 PM 41.6947 -102.5486 258° West 431 496 45,000  Level Denver Center
Mon 09:50:14 PM 41.6686 -102.7047 257° West 429 494 45,000  Level Denver Center
Mon 09:51:16 PM 41.6433 -102.8531 257° West 427 491 45,000  Level Denver Center
Mon 09:52:29 PM 41.6136 -103.0239 257° West 423 487 45,000  Level Denver Center
Mon 09:53:32 PM 41.5811 -103.2189 258° West 421 484 45,000  Level Denver Center
Mon 09:54:34 PM 41.5556 -103.3625 257° West 418 481 45,000  Level Denver Center
Mon 09:55:36 PM 41.5303 -103.5072 257° West 418 481 45,000  Level Denver Center
Mon 09:56:38 PM 41.5011 -103.6750 257° West 417 480 45,000  Level Denver Center
Mon 09:57:40 PM 41.4758 -103.8169 257° West 413 475 45,000  Level Denver Center
Mon 09:58:42 PM 41.4450 -103.9864 256° West 419 482 45,000  Level Denver Center
Mon 09:59:55 PM 41.4197 -104.1281 257° West 414 476 45,000  Level Denver Center
Mon 10:00:58 PM 41.3839 -104.3211 256° West 420 483 45,000  Level Denver Center
Mon 10:02:00 PM 41.3581 -104.4628 256° West 415 478 45,000  Level Denver Center
Mon 10:03:01 PM 41.3314 -104.6089 256° West 420 483 45,000  Level Denver Center
Mon 10:04:04 PM 41.2997 -104.7772 256° West 420 483 45,000  Level Denver Center
Mon 10:05:06 PM 41.2675 -104.9511 256° West 429 494 45,000  Level Denver Center
Mon 10:06:08 PM 41.2403 -105.0978 256° West 428 493 45,000  Level Denver Center
Mon 10:07:10 PM 41.2075 -105.2719 256° West 432 497 45,000  Level Denver Center
Mon 10:08:12 PM 41.1783 -105.4164 255° West 427 491 45,000  Level Denver Center
Mon 10:09:26 PM 41.1453 -105.5875 256° West 428 493 45,000  Level Denver Center
Mon 10:10:28 PM 41.1122 -105.7567 256° West 426 490 45,000  Level Denver Center
Mon 10:11:30 PM 41.0794 -105.9231 255° West 419 482 45,000  Level Denver Center
Mon 10:12:32 PM 41.0514 -106.0647 255° West 415 478 45,000  Level Denver Center
Mon 10:13:34 PM 41.0169 -106.2275 254° West 414 476 45,000  Level Denver Center
Mon 10:14:36 PM 40.9892 -106.3683 255° West 413 475 45,000  Level Denver Center
Mon 10:15:38 PM 40.9556 -106.5328 255° West 416 479 45,000  Level Denver Center
Mon 10:16:40 PM 40.9206 -106.6731 252° West 421 484 45,000  Level Denver Center
Mon 10:17:53 PM 40.8861 -106.8161 252° West 425 489 45,000  Level Denver Center
Mon 10:18:56 PM 40.8386 -107.0075 252° West 429 494 45,000  Level Denver Center
Mon 10:19:58 PM 40.7953 -107.1753 251° West 433 498 45,000  Level Denver Center
Mon 10:21:00 PM 40.7606 -107.3181 252° West 429 494 45,000  Level Denver Center
Mon 10:22:01 PM 40.7172 -107.4875 251° West 432 497 45,000  Level Denver Center
Mon 10:23:03 PM 40.6808 -107.6311 252° West 432 497 45,000  Level Denver Center
Mon 10:24:05 PM 40.6444 -107.7736 251° West 431 496 45,000  Level Denver Center
Mon 10:25:07 PM 40.6017 -107.9408 251° West 432 497 45,000  Level Denver Center
Mon 10:26:09 PM 40.5653 -108.0825 251° West 429 494 45,000  Level Denver Center
Mon 10:27:11 PM 40.5214 -108.2464 251° West 427 491 45,000  Level Denver Center
Mon 10:28:13 PM 40.4839 -108.3869 251° West 428 493 45,000  Level Denver Center
Mon 10:29:15 PM 40.4406 -108.5500 251° West 425 489 45,000  Level Denver Center
Mon 10:30:17 PM 40.4033 -108.6894 251° West 425 489 45,000  Level Denver Center
Mon 10:31:18 PM 40.3594 -108.8533 251° West 425 489 45,000  Level Denver Center
Mon 10:32:32 PM 40.3231 -108.9925 251° West 424 488 45,000  Level Denver Center
Mon 10:33:35 PM 40.2719 -109.1772 250° West 426 490 45,000  Level Denver Center
Mon 10:34:29 PM 40.2347 -109.3144 250° West 423 487 45,000  Level Salt Lake Center
Mon 10:34:36 PM 40.2347 -109.3144 250° West 421 484 45,000  Level Denver Center
Mon 10:35:31 PM 40.1964 -109.4514 250° West 421 484 45,000  Level Salt Lake Center
Mon 10:36:33 PM 40.1517 -109.6117 250° West 421 484 45,000  Level Salt Lake Center
Mon 10:37:35 PM 40.1136 -109.7486 250° West 421 484 45,000  Level Salt Lake Center
Mon 10:38:36 PM 40.0686 -109.9089 250° West 422 486 45,000  Level Salt Lake Center
Mon 10:39:38 PM 40.0306 -110.0453 250° West 419 482 45,000  Level Salt Lake Center
Mon 10:40:40 PM 39.9925 -110.1814 250° West 419 482 45,000  Level Salt Lake Center
Mon 10:41:42 PM 39.9469 -110.3383 249° West 416 479 45,000  Level Salt Lake Center
Mon 10:42:43 PM 39.9092 -110.4725 250° West 414 476 45,000  Level Salt Lake Center
Mon 10:43:45 PM 39.8639 -110.6294 249° West 414 476 45,000  Level Salt Lake Center
Mon 10:44:47 PM 39.8253 -110.7633 249° West 415 478 45,000  Level Salt Lake Center
Mon 10:45:49 PM 39.7797 -110.9192 249° West 414 476 45,000  Level Salt Lake Center
Mon 10:46:50 PM 39.7408 -111.0522 249° West 412 474 45,000  Level Salt Lake Center
Mon 10:47:52 PM 39.6953 -111.2086 249° West 414 476 45,000  Level Salt Lake Center
Mon 10:48:54 PM 39.6575 -111.3303 248° West 415 478 45,000  Level Salt Lake Center
Mon 10:49:55 PM 39.6164 -111.4692 249° West 413 475 45,000  Level Salt Lake Center
Mon 10:50:57 PM 39.5656 -111.6358 248° West 414 476 45,000  Level Salt Lake Center
Mon 10:51:59 PM 39.5253 -111.7747 249° West 412 474 45,000  Level Salt Lake Center
Mon 10:53:00 PM 39.4833 -111.9128 249° West 412 474 45,000  Level Salt Lake Center
Mon 10:54:02 PM 39.4419 -112.0522 249° West 416 479 45,000  Level Salt Lake Center
Mon 10:55:04 PM 39.3994 -112.1892 248° West 414 476 45,000  Level Salt Lake Center
Mon 10:56:05 PM 39.3581 -112.3289 249° West 416 479 45,000  Level Salt Lake Center
Mon 10:57:07 PM 39.3169 -112.4694 249° West 419 482 45,000  Level Salt Lake Center
Mon 10:58:08 PM 39.2808 -112.6067 251° West 411 473 45,000  Level Salt Lake Center
Mon 10:59:10 PM 39.2444 -112.7717 254° West 412 474 45,000  Level Salt Lake Center
Mon 11:00:12 PM 39.2128 -112.9128 254° West 413 475 45,000  Level Salt Lake Center
Mon 11:01:13 PM 39.1808 -113.0556 254° West 416 479 45,000  Level Salt Lake Center
Mon 11:02:15 PM 39.1492 -113.1953 254° West 411 473 45,000  Level Salt Lake Center
Mon 11:03:16 PM 39.1167 -113.3339 253° West 408 470 45,000  Level Salt Lake Center
Mon 11:04:18 PM 39.0853 -113.4728 254° West 407 468 45,000  Level Salt Lake Center
Mon 11:05:19 PM 39.0458 -113.6394 253° West 408 470 45,000  Level Salt Lake Center
Mon 11:06:21 PM 39.0150 -113.7789 254° West 408 470 45,000  Level Salt Lake Center
Mon 11:07:23 PM 38.9814 -113.9186 253° West 410 472 45,000  Level Salt Lake Center
Mon 11:08:24 PM 38.9492 -114.0569 253° West 408 470 45,000  Level Salt Lake Center
Mon 11:09:26 PM 38.9169 -114.1975 254° West 411 473 45,000  Level Salt Lake Center
Mon 11:10:27 PM 38.8839 -114.3356 253° West 409 471 45,000  Level Salt Lake Center
Mon 11:11:29 PM 38.8492 -114.4744 252° West 411 473 45,000  Level Salt Lake Center
Mon 11:12:30 PM 38.8106 -114.6411 253° West 409 471 45,000  Level Salt Lake Center
Mon 11:13:31 PM 38.7761 -114.7803 252° West 411 473 45,000  Level Salt Lake Center
Mon 11:14:33 PM 38.7425 -114.9178 253° West 406 467 45,000  Level Salt Lake Center
Mon 11:15:34 PM 38.7078 -115.0572 252° West 410 472 45,000  Level Salt Lake Center
Mon 11:16:36 PM 38.6717 -115.1964 252° West 413 475 45,000  Level Salt Lake Center
Mon 11:17:37 PM 38.6378 -115.3342 253° West 410 472 45,000  Level Salt Lake Center
Mon 11:18:39 PM 38.6006 -115.4883 253° West 406 467 45,000  Level Salt Lake Center
Mon 11:19:40 PM 38.5667 -115.6264 253° West 406 467 45,000  Level Salt Lake Center
Mon 11:20:41 PM 38.5314 -115.7631 252° West 406 467 45,000  Level Salt Lake Center
Mon 11:21:43 PM 38.4967 -115.9003 252° West 407 468 45,000  Level Salt Lake Center
Mon 11:22:44 PM 38.4619 -116.0375 252° West 407 468 45,000  Level Salt Lake Center
Mon 11:23:37 PM 38.4344 -116.1469 252° West 408 470 45,000  Level Oakland Center
Mon 11:24:39 PM 38.3911 -116.3111 251° West 408 470 45,000  Level Oakland Center
Mon 11:25:40 PM 38.3558 -116.4481 252° West 407 468 45,000  Level Oakland Center
Mon 11:26:41 PM 38.3194 -116.5847 251° West 406 467 45,000  Level Oakland Center
Mon 11:27:42 PM 38.2839 -116.7200 252° West 404 465 45,000  Level Oakland Center
Mon 11:28:43 PM 38.2403 -116.8494 247° West 399 459 45,000  Level Oakland Center
Mon 11:29:44 PM 38.1875 -116.9736 242° Southwest 399 459 45,000  Level Oakland Center
Mon 11:30:45 PM 38.1319 -117.1033 241° Southwest 399 459 45,000  Level Oakland Center
Mon 11:31:46 PM 38.0739 -117.2342 241° Southwest 413 475 45,000  Level Oakland Center
Mon 11:32:47 PM 38.0208 -117.3594 242° Southwest 401 461 45,000  Level Oakland Center
Mon 11:33:48 PM 37.9678 -117.4817 241° Southwest 396 456 45,000 -295 Level Oakland Center
Mon 11:34:49 PM 37.9156 -117.6022 241° Southwest 392 451 44,400 -885 Descending Oakland Center
Mon 11:35:50 PM 37.8642 -117.7197 241° Southwest 383 441 43,200 -1,180 Descending Oakland Center
Mon 11:36:51 PM 37.8097 -117.8414 241° Southwest 394 453 42,000 -1,180 Descending Oakland Center
Mon 11:37:52 PM 37.7558 -117.9622 241° Southwest 394 453 40,800 -1,171 Descending Oakland Center
Mon 11:38:54 PM 37.7039 -118.0839 242° Southwest 393 452 39,600 -1,171 Descending Oakland Center
Mon 11:39:55 PM 37.6497 -118.2031 240° Southwest 392 451 38,400 -1,180 Descending Oakland Center
Mon 11:40:56 PM 37.5958 -118.3250 241° Southwest 396 456 37,200 -1,180 Descending Oakland Center
Mon 11:41:57 PM 37.5411 -118.4467 240° Southwest 398 458 36,000 -1,328 Descending Oakland Center
Mon 11:42:58 PM 37.4747 -118.5964 241° Southwest 410 472 34,500 -984 Descending Oakland Center
Mon 11:43:59 PM 37.4175 -118.7222 240° Southwest 414 476 34,000 -246 Descending Oakland Center
Mon 11:45:00 PM 37.3817 -118.8617 252° West 416 479 34,000  Level Oakland Center
Mon 11:46:01 PM 37.3675 -119.0053 263° West 414 476 34,000  Level Oakland Center
Mon 11:47:02 PM 37.3531 -119.1453 263° West 408 470 34,000 -443 Level Oakland Center
Mon 11:48:03 PM 37.3383 -119.2858 263° West 408 470 33,100 -1,770 Descending Oakland Center
Mon 11:49:04 PM 37.3242 -119.4314 263° West 419 482 30,400 -2,656 Descending Oakland Center
Mon 11:50:05 PM 37.3075 -119.5800 262° West 430 495 27,700 -2,557 Descending Oakland Center
Mon 11:51:06 PM 37.2931 -119.7233 263° West 417 480 25,200 -1,820 Descending Oakland Center
Mon 11:52:07 PM 37.2786 -119.8606 263° West 409 471 24,000 -590 Descending Oakland Center
Mon 11:53:08 PM 37.2639 -120.0033 263° West 410 472 24,000 -98 Level Oakland Center
Mon 11:54:09 PM 37.2481 -120.1483 262° West 417 480 23,800 -1,328 Descending Oakland Center
Mon 11:55:10 PM 37.2294 -120.3139 262° West 402 463 21,300 -2,337 Descending Oakland Center
Mon 11:55:44 PM 37.2167 -120.3833 257° West 392 451 20,100 -2,298 Descending Northern Cal TRACON
Mon 11:56:44 PM 37.2000 -120.5167 261° West 442 509 17,700 -2,800 Descending Northern Cal TRACON
Mon 11:57:44 PM 37.1667 -120.6500 253° West 359 413 14,500 -2,895 Descending Northern Cal TRACON
Mon 11:58:38 PM 37.1500 -120.7500 258° West 360 414 12,200 -2,368 Descending Northern Cal TRACON
Mon 11:59:38 PM 37.1167 -120.8667 250° West 347 399 10,000 -1,423 Descending Northern Cal TRACON
Tue 12:00:15 AM 37.1056 -120.9286 257° West 330 380 9,900  Descending Oakland Center
Tue 12:01:16 AM 37.0806 -121.0433 255° West 338 389 10,000  Climbing Oakland Center
Tue 12:02:17 AM 37.0589 -121.1544 256° West 351 404 9,900 -49 Descending Oakland Center
Tue 12:03:18 AM 37.0825 -121.2653 285° West 333 383 9,900 -590 Level Oakland Center
Tue 12:04:19 AM 37.1006 -121.3703 282° West 290 334 8,700 -1,328 Descending Oakland Center
Tue 12:05:20 AM 37.1189 -121.4617 284° West 274 315 7,200 -1,475 Descending Oakland Center
Tue 12:06:21 AM 37.1350 -121.5539 282° West 270 311 5,700 -1,131 Descending Oakland Center
Tue 12:07:22 AM 37.1492 -121.6469 281° West 250 288 4,900 -393 Descending Oakland Center
Tue 12:08:23 AM 37.1703 -121.7253 289° West 238 274 4,900 -492 Level Oakland Center
Tue 12:09:24 AM 37.2203 -121.7736 322° Northwest 225 259 3,900 -1,230 Descending Oakland Center
Tue 12:10:25 AM 37.2581 -121.8169 318° Northwest 197 227 2,400 -1,033 Descending Oakland Center
Tue 12:11:26 AM 37.2922 -121.8528 320° Northwest 180 207 1,800 -738 Descending Oakland Center
Tue 12:12:27 AM 37.3200 -121.8864 316° Northwest 159 183 900 -744 Descending Oakland Center
Tue 12:13:27 AM 37.3444 -121.9125 320° Northwest 136 157 300 -600 Descending Oakland Center
Tue 12:15:00 AM 37.3500 -121.9167 North  Level FlightAware Approximate

Login

Don't have an account? Register now (free) for customized features, flight alerts, and more!